Startpagina
METAR-TAF:

METAR-TAF

Vliegvelden :

Fairbanks, Alaska, Verenigde Staten

breedte: 64-48-14N, lengte: 147-52-34W, hoogte: 132 m

Actueel weer

Dit bericht is 1 uur en het 2 minuten geleden gemaakt, om 19:53 UTC
Wind 6 kt uit het westzuidwesten
Temperatuur 19°C
Vochtigheid 43%
Druk 1011 hPa
Zicht: 16.1 km
Verspreide wolken op 6000 ft
Gebroken wolken op 10000 ft
Gebroken wolken op 20000 ft

METAR: PAFA 281953Z 25006KT 10SM SCT060 BKN100 BKN200 19/06 A2986 RMK AO2 SLP116 T01940061

Tijdstip: 12:55 (20:55 UTC)

Verwachting

Dit bericht is 3 uur en het 19 minuten geleden gemaakt, om 17:36 UTC
Verwachting geldig van 28 om 18 UTC tot 29 om 24 UTC
Wind 4 kt uit variabele richting
Zicht: 10 km
Verspreide wolken op 7000 ft
Verspreide wolken op 10000 ft
Gebroken wolken op 20000 ft

TAF: PAFA 281736Z 2818/2924 VRB04KT P6SM SCT070 SCT100 BKN200

Waarnemingen en weersverwachtingen van meer dan 4000 vliegvelden (METAR en TAF).

De beschikbare stations zijn de gele en rode punten op de kaart.

Ga met uw muis naar het station om de naam te zien.

Klik dan om waarnemingen en weersverwachtingen te zien.

kaart wijzigen: klik op de groene knoppen met een zwart kruis om in te zoomen, op de groene knop met een streepje om uit te zoomen of op de groene pijlen voor aangrenzende kaarten.


METAR-TAF: